Time;durP1;ratioP1;P1;durP2;ratioP2;P2;SDS_P1;SDS_P2;PMS_P1;PMS_P2;Temp;Humidity;BMP_temperature;BMP_pressure;BME280_temperature;BME280_humidity;BME280_pressure;Samples;Min_cycle;Max_cycle;Signal;HPM_P1;HPM_P2
2022/09/15 00:00:10;;;;;;;34.67;19.40;;;;;;;12.83;100.00;99842.81;682922;28;1389;-63
2022/09/15 00:00:31;;;;;;;32.80;19.30;;;;;;;12.83;100.00;99840.19;681500;28;1077;-62
2022/09/15 00:00:52;;;;;;;37.00;20.50;;;;;;;12.78;100.00;99841.16;680951;28;4364;-63
2022/09/15 00:01:13;;;;;;;36.92;20.35;;;;;;;12.76;100.00;99845.56;682426;28;1080;-62
2022/09/15 00:01:34;;;;;;;36.72;20.60;;;;;;;12.78;100.00;99842.94;682412;28;1121;-63
2022/09/15 00:01:55;;;;;;;38.67;21.10;;;;;;;12.77;100.00;99839.44;683625;28;1097;-62
2022/09/15 00:02:15;;;;;;;39.00;21.47;;;;;;;12.76;100.00;99832.47;683347;28;1236;-63
2022/09/15 00:02:36;;;;;;;37.83;20.95;;;;;;;12.75;100.00;99836.00;684299;28;1064;-63
2022/09/15 00:02:56;;;;;;;34.63;20.15;;;;;;;12.76;100.00;99847.34;681910;28;1088;-61
2022/09/15 00:03:17;;;;;;;35.20;20.00;;;;;;;12.76;100.00;99847.34;682487;28;1460;-62
2022/09/15 00:03:39;;;;;;;36.58;19.60;;;;;;;12.81;100.00;99840.22;680738;28;4550;-62
2022/09/15 00:04:00;;;;;;;35.95;20.33;;;;;;;12.80;100.00;99835.88;679341;28;1226;-63
2022/09/15 00:04:20;;;;;;;37.17;20.15;;;;;;;12.79;100.00;99836.78;679726;28;1104;-62
2022/09/15 00:04:40;;;;;;;41.33;20.27;;;;;;;12.78;100.00;99840.31;679370;29;1276;-62
2022/09/15 00:05:01;;;;;;;38.08;20.00;;;;;;;12.76;100.00;99839.47;676993;29;1297;-63
2022/09/15 00:05:21;;;;;;;33.97;19.47;;;;;;;12.74;100.00;99843.94;677105;29;1059;-63
2022/09/15 00:05:42;;;;;;;36.37;19.73;;;;;;;12.70;100.00;99832.66;677036;28;1220;-63
2022/09/15 00:06:03;;;;;;;35.80;19.77;;;;;;;12.73;100.00;99842.19;682747;28;1254;-63
2022/09/15 00:06:23;;;;;;;36.42;20.05;;;;;;;12.75;100.00;99835.13;682065;28;1262;-62
2022/09/15 00:06:43;;;;;;;39.67;20.20;;;;;;;12.80;100.00;99841.13;681967;28;4330;-62
2022/09/15 00:07:04;;;;;;;37.00;20.45;;;;;;;12.80;100.00;99832.41;682413;28;1254;-63
2022/09/15 00:07:24;;;;;;;35.73;19.93;;;;;;;12.78;100.00;99835.06;681684;28;1306;-63
2022/09/15 00:07:45;;;;;;;37.77;20.03;;;;;;;12.77;100.00;99838.59;682467;28;1469;-62
2022/09/15 00:08:05;;;;;;;35.50;19.23;;;;;;;12.75;100.00;99843.00;681658;28;1797;-63
2022/09/15 00:08:26;;;;;;;36.70;20.30;;;;;;;12.75;100.00;99843.00;682616;28;1107;-62
2022/09/15 00:08:46;;;;;;;35.77;19.47;;;;;;;12.73;100.00;99842.19;681545;28;1116;-62
2022/09/15 00:09:06;;;;;;;38.57;20.43;;;;;;;12.72;100.00;99836.09;681466;28;1088;-62
2022/09/15 00:09:27;;;;;;;38.67;20.67;;;;;;;12.72;100.00;99837.84;683545;28;1064;-62
2022/09/15 00:09:47;;;;;;;36.20;19.90;;;;;;;12.73;100.00;99836.94;682016;28;4439;-63
2022/09/15 00:10:09;;;;;;;34.73;20.03;;;;;;;12.72;100.00;99840.47;682351;28;1199;-63
2022/09/15 00:10:29;;;;;;;38.40;20.55;;;;;;;12.70;100.00;99837.03;683911;28;1135;-62
2022/09/15 00:10:57;;;;;;;36.57;20.47;;;;;;;12.68;100.00;99838.81;682233;28;1056;-63
2022/09/15 00:11:21;;;;;;;37.17;20.00;;;;;;;12.70;100.00;99837.88;685069;28;1274;-63
2022/09/15 00:11:41;;;;;;;37.70;20.27;;;;;;;12.67;100.00;99837.97;683687;28;1243;-61
2022/09/15 00:12:02;;;;;;;35.27;19.97;;;;;;;12.69;100.00;99845.81;682163;28;1522;-62
2022/09/15 00:12:22;;;;;;;37.35;19.75;;;;;;;12.68;100.00;99839.72;682906;28;1160;-62
2022/09/15 00:12:43;;;;;;;37.93;20.03;;;;;;;12.71;100.00;99841.38;682959;28;4340;-62
2022/09/15 00:13:03;;;;;;;39.03;20.77;;;;;;;12.73;100.00;99842.19;681709;28;1371;-63
2022/09/15 00:13:24;;;;;;;37.50;20.57;;;;;;;12.73;100.00;99834.34;679481;28;1479;-62
2022/09/15 00:13:45;;;;;;;38.08;20.65;;;;;;;12.67;100.00;99834.47;679830;28;1383;-62
2022/09/15 00:14:07;;;;;;;36.72;20.17;;;;;;;12.64;100.00;99837.19;679387;28;1073;-63
2022/09/15 00:14:27;;;;;;;37.15;20.88;;;;;;;12.66;100.00;99840.66;679397;28;1221;-63
2022/09/15 00:14:47;;;;;;;40.57;21.00;;;;;;;12.66;100.00;99845.88;680260;28;1182;-62
2022/09/15 00:15:11;;;;;;;38.42;20.42;;;;;;;12.66;100.00;99838.03;682373;28;1224;-62
2022/09/15 00:15:31;;;;;;;32.60;19.40;;;;;;;12.68;100.00;99841.44;681873;28;1064;-63
2022/09/15 00:15:52;;;;;;;33.53;19.70;;;;;;;12.69;100.00;99841.41;681230;28;4345;-62
2022/09/15 00:16:15;;;;;;;35.35;20.15;;;;;;;12.71;100.00;99838.75;681926;28;3361;-63
2022/09/15 00:16:35;;;;;;;34.83;20.20;;;;;;;12.72;100.00;99843.97;682304;28;1088;-63
2022/09/15 00:16:56;;;;;;;36.47;20.85;;;;;;;12.74;100.00;99838.69;679805;29;1141;-61
2022/09/15 00:17:16;;;;;;;35.70;20.40;;;;;;;12.78;100.00;99837.69;678595;28;1033;-63
2022/09/15 00:17:37;;;;;;;34.97;19.83;;;;;;;12.76;100.00;99839.47;679476;28;1043;-62
2022/09/15 00:17:57;;;;;;;36.77;20.23;;;;;;;12.77;100.00;99841.22;679291;29;1455;-62
2022/09/15 00:18:17;;;;;;;33.50;19.73;;;;;;;12.77;100.00;99841.22;679361;28;1080;-63
2022/09/15 00:18:38;;;;;;;36.37;19.83;;;;;;;12.76;100.00;99842.09;679326;28;4472;-63
2022/09/15 00:18:59;;;;;;;36.72;20.17;;;;;;;12.75;100.00;99835.13;682417;28;1222;-63
2022/09/15 00:19:20;;;;;;;40.08;20.73;;;;;;;12.70;100.00;99843.13;679725;28;1153;-62
2022/09/15 00:19:40;;;;;;;36.53;20.08;;;;;;;12.70;100.00;99840.50;678851;28;1034;-62
2022/09/15 00:20:04;;;;;;;32.33;19.37;;;;;;;12.73;100.00;99836.94;682461;28;1263;-63
2022/09/15 00:20:25;;;;;;;35.28;19.98;;;;;;;12.75;100.00;99835.13;678885;28;1619;-63
2022/09/15 00:20:46;;;;;;;37.25;20.80;;;;;;;12.80;100.00;99832.41;679331;29;1240;-63
2022/09/15 00:21:10;;;;;;;36.45;19.90;;;;;;;12.82;100.00;99838.47;679765;28;1911;-63
2022/09/15 00:21:32;;;;;;;37.75;19.90;;;;;;;12.82;100.00;99834.09;680635;28;1132;-63
2022/09/15 00:21:52;;;;;;;37.80;19.67;;;;;;;12.80;100.00;99838.50;682335;28;4341;-62
2022/09/15 00:22:12;;;;;;;35.03;20.27;;;;;;;12.80;100.00;99840.28;682700;28;1244;-62
2022/09/15 00:22:33;;;;;;;34.90;19.88;;;;;;;12.79;100.00;99842.03;681831;28;1052;-62
2022/09/15 00:22:53;;;;;;;36.10;19.80;;;;;;;12.78;100.00;99830.69;681862;28;1205;-63
2022/09/15 00:23:15;;;;;;;34.53;19.67;;;;;;;12.78;100.00;99833.31;682067;28;1064;-62
2022/09/15 00:23:36;;;;;;;33.58;19.70;;;;;;;12.78;100.00;99840.31;682193;28;1111;-62
2022/09/15 00:23:58;;;;;;;34.55;20.27;;;;;;;12.77;100.00;99838.59;682512;28;1145;-63
2022/09/15 00:24:18;;;;;;;35.13;19.80;;;;;;;12.80;100.00;99833.25;681541;28;1105;-62
2022/09/15 00:24:40;;;;;;;34.67;19.38;;;;;;;12.79;100.00;99836.78;681008;28;4324;-63
2022/09/15 00:25:00;;;;;;;35.00;19.90;;;;;;;12.78;100.00;99837.69;682436;28;1183;-63
2022/09/15 00:25:21;;;;;;;35.78;20.27;;;;;;;12.75;100.00;99841.25;682753;28;1052;-62
2022/09/15 00:25:46;;;;;;;34.67;19.63;;;;;;;12.72;100.00;99838.72;679341;28;1265;-62
2022/09/15 00:26:08;;;;;;;36.63;19.60;;;;;;;12.70;100.00;99837.03;679931;28;1121;-63
2022/09/15 00:26:30;;;;;;;37.50;20.27;;;;;;;12.71;100.00;99833.50;681327;28;1049;-62
2022/09/15 00:26:50;;;;;;;34.13;19.63;;;;;;;12.71;100.00;99838.75;679413;29;1142;-63
2022/09/15 00:27:11;;;;;;;32.20;18.53;;;;;;;12.73;100.00;99829.94;677302;29;1105;-63
2022/09/15 00:27:32;;;;;;;34.83;19.02;;;;;;;12.75;100.00;99840.38;675386;29;1286;-63
2022/09/15 00:27:52;;;;;;;34.17;19.27;;;;;;;12.77;100.00;99838.59;675198;28;4929;-63
2022/09/15 00:28:14;;;;;;;36.97;19.63;;;;;;;12.78;100.00;99835.06;676647;29;1164;-62
2022/09/15 00:28:35;;;;;;;35.83;19.38;;;;;;;12.75;100.00;99836.00;674750;29;1149;-63
2022/09/15 00:28:57;;;;;;;33.88;19.42;;;;;;;12.76;100.00;99829.00;677230;29;1177;-62
2022/09/15 00:29:18;;;;;;;32.97;19.02;;;;;;;12.77;100.00;99843.84;682363;28;1117;-63
2022/09/15 00:29:38;;;;;;;33.17;18.75;;;;;;;12.78;100.00;99835.06;682179;28;1599;-63
2022/09/15 00:29:59;;;;;;;32.60;18.90;;;;;;;12.78;100.00;99832.44;682721;28;1211;-62
2022/09/15 00:30:19;;;;;;;32.63;19.33;;;;;;;12.82;100.00;99839.34;681433;28;1135;-63
2022/09/15 00:30:42;;;;;;;32.63;19.20;;;;;;;12.83;100.00;99838.41;680556;28;4296;-62
2022/09/15 00:31:07;;;;;;;34.05;19.50;;;;;;;12.82;100.00;99833.22;676730;29;1196;-62
2022/09/15 00:31:30;;;;;;;33.65;19.67;;;;;;;12.82;100.00;99836.72;677419;29;1179;-63
2022/09/15 00:31:50;;;;;;;34.47;20.25;;;;;;;12.80;100.00;99838.50;678349;28;1133;-63
2022/09/15 00:32:10;;;;;;;33.40;19.20;;;;;;;12.79;100.00;99834.16;676777;29;1242;-62
2022/09/15 00:32:31;;;;;;;34.35;19.25;;;;;;;12.77;100.00;99841.22;677317;29;1050;-63
2022/09/15 00:32:52;;;;;;;36.80;19.15;;;;;;;12.76;100.00;99836.88;676786;28;1127;-63
2022/09/15 00:33:14;;;;;;;34.97;19.07;;;;;;;12.76;100.00;99837.72;677718;28;1070;-63
2022/09/15 00:33:34;;;;;;;33.88;19.23;;;;;;;12.76;100.00;99837.72;682445;28;4341;-63
2022/09/15 00:33:58;;;;;;;32.75;18.98;;;;;;;12.76;100.00;99832.47;682021;28;1159;-63
2022/09/15 00:34:18;;;;;;;34.78;19.13;;;;;;;12.76;100.00;99840.34;682990;28;1127;-62
2022/09/15 00:34:38;;;;;;;36.03;19.23;;;;;;;12.74;100.00;99836.91;681673;28;1494;-62
2022/09/15 00:34:59;;;;;;;33.97;18.77;;;;;;;12.74;100.00;99831.66;682031;28;1096;-62
2022/09/15 00:35:19;;;;;;;35.07;18.93;;;;;;;12.72;100.00;99832.59;683483;28;1290;-63
2022/09/15 00:35:42;;;;;;;35.30;19.60;;;;;;;12.72;100.00;99835.22;682786;28;1116;-62
2022/09/15 00:36:05;;;;;;;35.05;19.80;;;;;;;12.72;100.00;99830.84;682190;28;1075;-63
2022/09/15 00:36:26;;;;;;;32.22;19.25;;;;;;;12.73;100.00;99831.72;682472;28;1524;-63
2022/09/15 00:36:46;;;;;;;32.60;19.63;;;;;;;12.71;100.00;99834.38;681919;28;4323;-63
2022/09/15 00:37:06;;;;;;;33.42;19.75;;;;;;;12.71;100.00;99828.25;682217;28;1184;-62
2022/09/15 00:37:27;;;;;;;34.40;18.83;;;;;;;12.68;100.00;99833.59;682357;28;1183;-63
2022/09/15 00:37:47;;;;;;;32.43;19.00;;;;;;;12.67;100.00;99837.97;682321;28;1105;-63
2022/09/15 00:38:09;;;;;;;32.17;19.40;;;;;;;12.66;100.00;99835.41;682079;28;1058;-63
2022/09/15 00:38:30;;;;;;;31.60;18.73;;;;;;;12.67;100.00;99837.09;680553;28;1184;-62
2022/09/15 00:38:51;;;;;;;32.03;18.58;;;;;;;12.68;100.00;99833.59;681664;28;5079;-62
2022/09/15 00:39:11;;;;;;;35.13;18.85;;;;;;;12.64;100.00;99840.69;682442;28;1123;-62
2022/09/15 00:39:31;;;;;;;33.53;18.93;;;;;;;12.62;100.00;99833.75;682111;28;1163;-63
2022/09/15 00:39:52;;;;;;;31.50;18.70;;;;;;;12.60;100.00;99837.28;681769;28;4433;-63
2022/09/15 00:40:12;;;;;;;32.17;18.37;;;;;;;12.62;100.00;99836.38;681952;28;1081;-63
2022/09/15 00:40:41;;;;;;;33.13;18.63;;;;;;;12.64;100.00;99837.19;682604;28;1076;-62
2022/09/15 00:41:03;;;;;;;32.08;18.65;;;;;;;12.66;100.00;99836.25;682699;28;1978;-63
2022/09/15 00:41:24;;;;;;;33.38;18.90;;;;;;;12.67;100.00;99843.22;681333;28;1455;-63
2022/09/15 00:41:44;;;;;;;31.40;18.85;;;;;;;12.70;100.00;99832.66;682688;28;1421;-63
2022/09/15 00:42:04;;;;;;;31.13;18.83;;;;;;;12.74;100.00;99836.06;683071;28;997;-63
2022/09/15 00:42:25;;;;;;;33.17;19.60;;;;;;;12.74;100.00;99842.16;681471;28;1421;-63
2022/09/15 00:42:45;;;;;;;33.73;20.03;;;;;;;12.71;100.00;99839.63;680916;28;4523;-63
2022/09/15 00:43:09;;;;;;;32.42;19.65;;;;;;;12.67;100.00;99837.97;681622;28;1514;-63
2022/09/15 00:43:59;;;;;;;32.83;18.88;;;;;;;12.67;100.00;99847.59;678807;29;1140;-63
2022/09/15 00:44:22;;;;;;;31.13;18.13;;;;;;;12.66;100.00;99838.03;676083;29;1221;-63
2022/09/15 00:44:58;;;;;;;30.20;18.60;;;;;;;12.64;100.00;99845.06;680203;28;1318;-63
2022/09/15 00:45:19;;;;;;;34.22;19.58;;;;;;;12.63;100.00;99843.31;680541;28;1283;-63
2022/09/15 00:45:39;;;;;;;33.50;19.15;;;;;;;12.60;100.00;99847.75;681505;28;4609;-63
2022/09/15 00:46:00;;;;;;;34.33;19.17;;;;;;;12.59;100.00;99838.16;682116;28;1282;-63
2022/09/15 00:46:31;;;;;;;33.83;19.07;;;;;;;12.59;100.00;99843.41;682186;28;1281;-63
2022/09/15 00:46:54;;;;;;;31.70;18.58;;;;;;;12.58;100.00;99843.47;683195;28;1341;-63
2022/09/15 00:47:17;;;;;;;31.42;18.67;;;;;;;12.57;100.00;99842.59;682088;28;1310;-63
2022/09/15 00:47:38;;;;;;;34.20;19.20;;;;;;;12.55;100.00;99844.41;682103;28;1400;-62
2022/09/15 00:47:59;;;;;;;35.10;18.90;;;;;;;12.55;100.00;99843.53;682030;28;1299;-62
2022/09/15 00:48:21;;;;;;;32.03;18.60;;;;;;;12.55;100.00;99843.53;681604;28;1338;-63
2022/09/15 00:49:00;;;;;;;34.55;18.52;;;;;;;12.57;100.00;99847.84;681324;28;4451;-63
2022/09/15 00:49:26;;;;;;;32.00;18.80;;;;;;;12.55;100.00;99847.00;681019;28;1417;-62
2022/09/15 00:49:52;;;;;;;31.15;17.92;;;;;;;12.56;100.00;99846.13;681617;28;1182;-63
2022/09/15 00:50:17;;;;;;;31.42;19.35;;;;;;;12.55;100.00;99849.63;684391;28;1321;-62
2022/09/15 00:50:40;;;;;;;32.08;18.75;;;;;;;12.55;100.00;99846.16;684752;28;1255;-63
2022/09/15 00:51:02;;;;;;;33.55;18.98;;;;;;;12.53;100.00;99851.44;684747;28;1307;-62
2022/09/15 00:51:31;;;;;;;36.35;19.85;;;;;;;12.51;100.00;99848.00;682218;28;1286;-63
2022/09/15 00:51:58;;;;;;;37.88;19.45;;;;;;;12.49;100.00;99855.06;681393;28;4378;-63
2022/09/15 00:52:25;;;;;;;32.58;19.63;;;;;;;12.47;100.00;99856.00;681777;28;1302;-63
2022/09/15 00:52:51;;;;;;;31.83;19.25;;;;;;;12.40;100.00;99855.28;681851;28;1462;-63
2022/09/15 00:53:13;;;;;;;33.15;19.88;;;;;;;12.35;100.00;99850.16;682717;28;1008;-62
2022/09/15 00:53:34;;;;;;;34.17;19.80;;;;;;;12.36;100.00;99853.63;681910;28;1206;-63
2022/09/15 00:53:56;;;;;;;32.85;19.17;;;;;;;12.39;100.00;99853.53;682539;28;1248;-63
2022/09/15 00:54:37;;;;;;;32.30;19.02;;;;;;;12.42;100.00;99856.97;681057;28;1204;-63
2022/09/15 00:55:04;;;;;;;33.95;18.83;;;;;;;12.46;100.00;99854.25;681086;28;5038;-63
2022/09/15 00:55:29;;;;;;;35.08;19.55;;;;;;;12.46;100.00;99851.63;681566;28;1283;-63
2022/09/15 00:55:51;;;;;;;30.83;18.27;;;;;;;12.50;100.00;99850.66;678851;28;1211;-63
2022/09/15 00:56:12;;;;;;;31.17;19.20;;;;;;;12.55;100.00;99848.78;679531;28;1235;-63
2022/09/15 00:56:35;;;;;;;29.50;18.40;;;;;;;12.51;100.00;99847.16;679478;29;1290;-62
2022/09/15 00:56:59;;;;;;;32.90;19.30;;;;;;;12.52;100.00;99854.97;681387;28;1088;-63
2022/09/15 00:57:27;;;;;;;31.50;18.00;;;;;;;12.53;100.00;99858.44;681880;28;1523;-62
2022/09/15 00:57:51;;;;;;;29.92;17.92;;;;;;;12.53;100.00;99854.06;680608;28;4371;-63
2022/09/15 00:58:22;;;;;;;31.42;18.77;;;;;;;12.51;100.00;99852.38;680640;28;1228;-63
2022/09/15 00:58:49;;;;;;;34.47;19.58;;;;;;;12.51;100.00;99848.00;681067;28;1386;-62
2022/09/15 00:59:17;;;;;;;32.83;18.90;;;;;;;12.53;100.00;99856.69;682243;28;1180;-63
2022/09/15 00:59:40;;;;;;;33.17;18.95;;;;;;;12.52;100.00;99854.97;682385;28;1282;-62
2022/09/15 01:00:05;;;;;;;31.48;18.38;;;;;;;12.49;100.00;99849.81;682149;28;1428;-63
2022/09/15 01:00:27;;;;;;;30.58;18.52;;;;;;;12.46;100.00;99852.50;682471;28;1411;-63
2022/09/15 01:00:55;;;;;;;32.17;19.42;;;;;;;12.42;100.00;99846.47;681443;28;4381;-63
2022/09/15 01:01:16;;;;;;;30.58;18.33;;;;;;;12.42;100.00;99850.88;681507;28;1420;-63
2022/09/15 01:01:39;;;;;;;31.50;18.58;;;;;;;12.41;100.00;99857.84;680567;28;1220;-63
2022/09/15 01:02:24;;;;;;;31.27;18.48;;;;;;;12.46;100.00;99851.63;680977;28;1314;-62
2022/09/15 01:02:47;;;;;;;31.83;19.08;;;;;;;12.44;100.00;99851.69;682283;28;1377;-62
2022/09/15 01:03:07;;;;;;;33.20;18.80;;;;;;;12.43;100.00;99850.81;681292;28;1123;-62
2022/09/15 01:03:31;;;;;;;32.33;18.53;;;;;;;12.44;100.00;99851.69;682028;28;1239;-63
2022/09/15 01:03:52;;;;;;;30.48;19.02;;;;;;;12.43;100.00;99849.94;681360;28;4362;-63
2022/09/15 01:04:14;;;;;;;31.17;19.15;;;;;;;12.42;100.00;99854.34;679893;28;1153;-63
2022/09/15 01:04:35;;;;;;;34.10;18.60;;;;;;;12.41;100.00;99850.00;679637;29;1204;-63
2022/09/15 01:04:57;;;;;;;33.10;19.00;;;;;;;12.41;100.00;99852.63;679313;29;1451;-62
2022/09/15 01:05:21;;;;;;;32.20;19.40;;;;;;;12.40;100.00;99852.66;673424;29;1260;-63
2022/09/15 01:05:49;;;;;;;31.33;18.98;;;;;;;12.38;100.00;99847.44;674186;29;1402;-62
2022/09/15 01:06:10;;;;;;;33.25;18.95;;;;;;;12.39;100.00;99850.94;677610;28;1331;-62
2022/09/15 01:06:35;;;;;;;34.37;19.13;;;;;;;12.37;100.00;99855.34;674492;29;1382;-63
2022/09/15 01:07:01;;;;;;;30.60;18.25;;;;;;;12.37;100.00;99850.97;671313;29;4883;-63
2022/09/15 01:07:29;;;;;;;30.13;18.63;;;;;;;12.40;100.00;99855.28;677300;29;1228;-63
2022/09/15 01:07:49;;;;;;;29.48;18.48;;;;;;;12.41;100.00;99852.63;677683;29;1354;-62
2022/09/15 01:08:19;;;;;;;30.03;18.17;;;;;;;12.44;100.00;99851.69;673744;29;1362;-63
2022/09/15 01:08:52;;;;;;;31.55;19.02;;;;;;;12.47;100.00;99856.00;678988;28;1272;-62
2022/09/15 01:09:35;;;;;;;31.48;18.40;;;;;;;12.47;100.00;99856.84;681982;28;1100;-63
2022/09/15 01:10:01;;;;;;;30.30;18.15;;;;;;;12.50;100.00;99859.41;682679;28;4733;-62
2022/09/15 01:10:34;;;;;;;29.23;18.02;;;;;;;12.50;100.00;99856.78;683044;28;1495;-63
2022/09/15 01:10:55;;;;;;;28.58;17.52;;;;;;;12.48;100.00;99857.72;683461;28;1640;-62
2022/09/15 01:11:16;;;;;;;26.75;17.65;;;;;;;12.44;100.00;99854.31;683953;28;1282;-62
2022/09/15 01:11:37;;;;;;;30.52;19.13;;;;;;;12.41;100.00;99862.25;681879;28;1125;-63
2022/09/15 01:11:58;;;;;;;32.33;19.00;;;;;;;12.39;100.00;99858.78;683270;28;1298;-63
2022/09/15 01:12:20;;;;;;;31.02;19.02;;;;;;;12.38;100.00;99857.09;682817;28;1330;-63
2022/09/15 01:12:41;;;;;;;29.00;18.40;;;;;;;12.37;100.00;99863.22;681778;28;4364;-63
2022/09/15 01:13:07;;;;;;;31.15;18.75;;;;;;;12.35;100.00;99865.00;682412;28;1274;-63
2022/09/15 01:13:31;;;;;;;29.83;18.17;;;;;;;12.36;100.00;99869.34;681860;28;1148;-63
2022/09/15 01:13:51;;;;;;;25.15;16.63;;;;;;;12.35;100.00;99865.88;682554;28;1416;-63
2022/09/15 01:14:11;;;;;;;26.50;16.47;;;;;;;12.32;100.00;99862.47;681821;28;1294;-63
2022/09/15 01:14:32;;;;;;;28.85;17.05;;;;;;;12.29;100.00;99859.94;682452;28;1215;-63
2022/09/15 01:14:52;;;;;;;28.67;17.53;;;;;;;12.26;100.00;99863.47;682452;28;1128;-62
2022/09/15 01:15:14;;;;;;;30.20;16.95;;;;;;;12.26;100.00;99866.94;682761;28;1253;-62
2022/09/15 01:16:10;;;;;;;30.50;17.52;;;;;;;12.24;100.00;99860.06;681481;28;4438;-63
2022/09/15 01:16:52;;;;;;;30.05;18.08;;;;;;;12.25;100.00;99857.38;679032;29;1270;-63
2022/09/15 01:17:33;;;;;;;29.73;17.38;;;;;;;12.27;100.00;99855.59;678597;28;1263;-62
2022/09/15 01:18:30;;;;;;;30.23;17.38;;;;;;;12.24;100.00;99863.53;676388;29;1278;-62
2022/09/15 01:19:09;;;;;;;28.55;16.95;;;;;;;12.24;100.00;99862.69;675784;29;4378;-62
2022/09/15 01:19:36;;;;;;;29.27;17.52;;;;;;;12.23;100.00;99856.56;676311;29;1204;-63
2022/09/15 01:20:14;;;;;;;29.02;17.80;;;;;;;12.24;100.00;99865.28;681568;28;2094;-62
2022/09/15 01:20:56;;;;;;;29.77;18.02;;;;;;;12.22;100.00;99857.44;681399;28;1284;-63
2022/09/15 01:21:44;;;;;;;33.28;18.40;;;;;;;12.21;100.00;99858.38;683371;28;1123;-63
2022/09/15 01:22:13;;;;;;;31.25;17.60;;;;;;;12.22;100.00;99861.84;681504;28;6238;-62
2022/09/15 01:22:52;;;;;;;32.30;17.80;;;;;;;12.21;100.00;99852.25;681383;28;1287;-64
2022/09/15 01:23:49;;;;;;;31.15;18.67;;;;;;;12.22;100.00;99853.97;682647;28;1243;-63
2022/09/15 01:24:33;;;;;;;30.55;17.50;;;;;;;12.21;100.00;99853.13;681934;28;1710;-63
2022/09/15 01:25:02;;;;;;;33.72;18.48;;;;;;;12.22;100.00;99856.59;681061;28;4298;-63
2022/09/15 01:25:41;;;;;;;33.90;18.15;;;;;;;12.21;100.00;99861.00;681534;28;1439;-62
2022/09/15 01:26:14;;;;;;;28.98;16.92;;;;;;;12.18;100.00;99855.78;681757;28;1291;-63
2022/09/15 01:26:37;;;;;;;30.95;17.50;;;;;;;12.18;100.00;99854.94;682815;28;1307;-62
2022/09/15 01:27:26;;;;;;;30.63;17.52;;;;;;;12.17;100.00;99851.47;682931;28;1268;-62
2022/09/15 01:28:31;;;;;;;29.15;17.30;;;;;;;12.22;100.00;99849.59;681179;28;4375;-62
2022/09/15 01:29:13;;;;;;;30.35;17.10;;;;;;;12.22;100.00;99852.19;680397;28;1313;-63
2022/09/15 01:29:40;;;;;;;30.65;17.58;;;;;;;12.25;100.00;99846.91;682161;28;1246;-62
2022/09/15 01:30:15;;;;;;;29.13;17.02;;;;;;;12.25;100.00;99846.03;681708;28;1309;-63
2022/09/15 01:30:45;;;;;;;30.58;17.77;;;;;;;12.24;100.00;99854.81;682627;28;4605;-64
2022/09/15 01:31:27;;;;;;;33.35;17.70;;;;;;;12.22;100.00;99849.59;682926;28;1409;-63
2022/09/15 01:33:05;;;;;;;27.85;16.60;;;;;;;12.24;100.00;99850.41;681940;28;1116;-63
2022/09/15 01:34:01;;;;;;;26.67;17.13;;;;;;;12.22;100.00;99849.59;681651;28;1426;-62
2022/09/15 01:34:24;;;;;;;28.90;16.75;;;;;;;12.19;100.00;99854.91;672404;29;5020;-63
2022/09/15 01:34:59;;;;;;;28.77;17.38;;;;;;;12.17;100.00;99842.75;680515;28;1996;-63
2022/09/15 01:35:56;;;;;;;27.63;16.35;;;;;;;12.17;100.00;99851.47;680897;28;1382;-63
2022/09/15 01:36:26;;;;;;;28.88;16.73;;;;;;;12.21;100.00;99850.50;681046;28;1141;-62
2022/09/15 01:36:53;;;;;;;27.85;16.23;;;;;;;12.22;100.00;99852.19;681273;28;5295;-62
2022/09/15 01:37:21;;;;;;;26.27;15.65;;;;;;;12.20;100.00;99845.31;681232;28;1155;-63
2022/09/15 01:37:57;;;;;;;28.05;16.50;;;;;;;12.18;100.00;99845.31;682151;28;1141;-63
2022/09/15 01:38:36;;;;;;;27.77;17.05;;;;;;;12.21;100.00;99855.75;681889;28;1248;-63
2022/09/15 01:39:09;;;;;;;25.48;16.45;;;;;;;12.20;100.00;99851.41;682212;28;5068;-63
2022/09/15 01:39:36;;;;;;;29.15;16.92;;;;;;;12.16;100.00;99844.50;682288;28;1081;-62
2022/09/15 01:39:59;;;;;;;26.45;16.40;;;;;;;12.15;100.00;99848.03;681226;28;4760;-62
2022/09/15 01:40:21;;;;;;;30.02;16.58;;;;;;;12.14;100.00;99845.44;681578;28;1271;-63
2022/09/15 01:40:52;;;;;;;29.67;17.20;;;;;;;12.12;100.00;99850.72;681785;28;1406;-64
2022/09/15 01:41:37;;;;;;;28.92;16.80;;;;;;;12.10;100.00;99847.25;681384;28;1950;-62
2022/09/15 01:42:05;;;;;;;29.58;17.45;;;;;;;12.06;100.00;99850.88;683022;28;1329;-62
2022/09/15 01:42:28;;;;;;;32.05;17.17;;;;;;;12.04;100.00;99850.03;683370;28;1533;-63
2022/09/15 01:42:51;;;;;;;29.20;16.63;;;;;;;12.05;100.00;99849.16;680421;28;4698;-63
2022/09/15 01:43:13;;;;;;;27.25;16.50;;;;;;;12.05;100.00;99854.38;681342;28;1156;-62
2022/09/15 01:43:42;;;;;;;27.70;17.00;;;;;;;12.05;100.00;99850.00;682483;28;1113;-63
2022/09/15 01:44:11;;;;;;;27.55;16.30;;;;;;;12.06;100.00;99843.88;678710;29;1303;-63
2022/09/15 01:44:37;;;;;;;28.02;16.73;;;;;;;12.06;100.00;99851.72;677876;28;1210;-63
2022/09/15 01:45:06;;;;;;;29.77;16.60;;;;;;;12.05;100.00;99839.53;677633;28;1089;-63
2022/09/15 01:45:31;;;;;;;29.58;17.40;;;;;;;12.06;100.00;99846.50;678138;28;1545;-63
2022/09/15 01:45:52;;;;;;;33.55;17.42;;;;;;;12.05;100.00;99838.66;680078;28;4517;-63
2022/09/15 01:46:15;;;;;;;32.90;17.77;;;;;;;12.05;100.00;99838.66;678850;28;1129;-63
2022/09/15 01:46:45;;;;;;;31.15;17.20;;;;;;;12.07;100.00;99836.84;679148;28;1258;-62
2022/09/15 01:47:09;;;;;;;30.25;17.88;;;;;;;12.10;100.00;99836.78;678976;29;1259;-63
2022/09/15 01:47:30;;;;;;;27.38;17.23;;;;;;;12.11;100.00;99830.66;678175;29;1549;-63
2022/09/15 01:47:53;;;;;;;29.95;17.80;;;;;;;12.13;100.00;99836.72;679429;29;1192;-63
2022/09/15 01:48:17;;;;;;;29.48;17.23;;;;;;;12.13;100.00;99836.72;681661;28;1119;-63
2022/09/15 01:48:38;;;;;;;29.02;17.52;;;;;;;12.12;100.00;99835.00;681766;28;4527;-63
2022/09/15 01:49:03;;;;;;;30.10;16.75;;;;;;;12.08;100.00;99836.81;681459;28;1243;-63
2022/09/15 01:49:30;;;;;;;29.60;16.67;;;;;;;12.03;100.00;99838.72;681783;28;1429;-62
2022/09/15 01:49:55;;;;;;;28.50;16.70;;;;;;;11.97;100.00;99830.13;681662;28;1660;-63
2022/09/15 01:50:21;;;;;;;29.30;17.13;;;;;;;11.93;100.00;99834.53;680445;28;1247;-62
2022/09/15 01:50:45;;;;;;;28.95;16.75;;;;;;;11.91;100.00;99846.81;680470;28;1414;-63
2022/09/15 01:51:07;;;;;;;30.00;16.45;;;;;;;11.92;100.00;99841.53;680972;28;1386;-62
2022/09/15 01:51:30;;;;;;;27.95;16.63;;;;;;;11.90;100.00;99840.69;682213;28;1277;-63
2022/09/15 01:51:52;;;;;;;28.33;17.17;;;;;;;11.89;100.00;99838.13;683739;28;4383;-63
2022/09/15 01:52:16;;;;;;;27.38;16.50;;;;;;;11.90;100.00;99843.31;684047;28;1096;-63
2022/09/15 01:52:43;;;;;;;29.73;16.98;;;;;;;11.91;100.00;99839.81;684442;28;1192;-63
2022/09/15 01:53:10;;;;;;;29.80;17.65;;;;;;;11.95;100.00;99843.28;682765;28;1345;-63
2022/09/15 01:53:31;;;;;;;27.38;16.50;;;;;;;12.00;100.00;99846.63;681298;28;1364;-62
2022/09/15 01:53:53;;;;;;;27.08;16.48;;;;;;;12.05;100.00;99843.91;682423;28;1159;-62
2022/09/15 01:54:18;;;;;;;28.88;17.00;;;;;;;12.09;100.00;99840.31;681547;28;948;-62
2022/09/15 01:54:44;;;;;;;29.20;16.38;;;;;;;12.11;100.00;99838.50;681566;28;4427;-63
2022/09/15 01:55:12;;;;;;;29.35;17.25;;;;;;;12.08;100.00;99843.81;681691;28;1358;-63
2022/09/15 01:55:41;;;;;;;30.73;17.17;;;;;;;12.06;100.00;99848.25;681788;28;1056;-62
2022/09/15 01:56:06;;;;;;;31.50;17.65;;;;;;;12.06;100.00;99840.41;682639;28;1207;-63
2022/09/15 01:56:27;;;;;;;30.50;17.58;;;;;;;12.08;100.00;99841.22;682282;28;1305;-63
2022/09/15 01:56:47;;;;;;;30.83;17.13;;;;;;;12.08;100.00;99839.44;682658;28;1200;-63
2022/09/15 01:57:08;;;;;;;29.05;17.40;;;;;;;12.08;100.00;99835.97;682660;28;938;-62
2022/09/15 01:57:28;;;;;;;29.53;17.03;;;;;;;12.08;100.00;99843.81;680983;28;1327;-63
2022/09/15 01:57:49;;;;;;;31.38;17.25;;;;;;;12.08;100.00;99841.22;681974;28;4506;-63